Time;durP1;ratioP1;P1;durP2;ratioP2;P2;SDS_P1;SDS_P2;PMS_P1;PMS_P2;Temp;Humidity;BMP_temperature;BMP_pressure;BME280_temperature;BME280_humidity;BME280_pressure;Samples;Min_cycle;Max_cycle;Signal;HPM_P1;HPM_P2
2022/11/26 00:00:24;;;;;;;30.13;17.13;;;5.80;99.90;;;;;;5039000;28;20546;-67
2022/11/26 00:02:53;;;;;;;25.07;15.93;;;5.50;99.90;;;;;;5033652;28;20454;-67
2022/11/26 00:05:21;;;;;;;20.77;15.57;;;5.50;99.90;;;;;;5045031;28;20505;-67
2022/11/26 00:07:54;;;;;;;24.50;16.20;;;5.50;99.90;;;;;;5056820;28;20458;-67
2022/11/26 00:10:24;;;;;;;26.87;16.07;;;5.40;99.90;;;;;;5052012;28;20463;-67
2022/11/26 00:12:51;;;;;;;30.20;16.13;;;5.40;99.90;;;;;;5058201;28;20886;-67
2022/11/26 00:15:21;;;;;;;21.60;15.73;;;5.40;99.90;;;;;;5060982;28;21153;-67
2022/11/26 00:17:50;;;;;;;25.13;16.20;;;5.60;99.90;;;;;;5055170;28;20464;-67
2022/11/26 00:20:20;;;;;;;41.53;17.67;;;5.30;99.90;;;;;;5060237;28;20463;-67
2022/11/26 00:22:50;;;;;;;26.80;15.97;;;5.60;99.90;;;;;;5063357;28;20499;-67
2022/11/26 00:25:19;;;;;;;24.43;15.67;;;5.10;99.90;;;;;;5057355;28;20459;-67
2022/11/26 00:27:47;;;;;;;24.70;16.60;;;5.60;99.90;;;;;;5061128;28;20451;-67
2022/11/26 00:30:17;;;;;;;22.40;14.70;;;5.10;99.90;;;;;;5059917;28;20471;-67
2022/11/26 00:32:45;;;;;;;33.67;16.47;;;4.80;99.90;;;;;;5055892;28;20585;-67
2022/11/26 00:35:12;;;;;;;18.27;16.03;;;5.10;99.90;;;;;;5057453;28;20459;-66
2022/11/26 00:37:44;;;;;;;18.07;15.90;;;5.00;99.90;;;;;;5061768;28;20853;-67
2022/11/26 00:40:23;;;;;;;27.60;16.50;;;5.40;99.90;;;;;;5063288;28;20466;-67
2022/11/26 00:42:50;;;;;;;25.07;16.30;;;5.30;99.90;;;;;;5057679;28;20883;-67
2022/11/26 00:45:19;;;;;;;24.67;15.57;;;5.50;99.90;;;;;;5054876;28;20483;-67
2022/11/26 00:47:47;;;;;;;25.43;16.57;;;5.70;99.90;;;;;;5059513;28;20532;-67
2022/11/26 00:50:16;;;;;;;33.83;16.20;;;5.50;99.90;;;;;;5060238;28;20459;-67
2022/11/26 00:52:46;;;;;;;32.93;16.97;;;5.50;99.90;;;;;;5060070;28;20929;-67
2022/11/26 00:55:26;;;;;;;27.70;16.47;;;5.30;99.90;;;;;;5055307;28;20964;-67
2022/11/26 00:57:53;;;;;;;28.60;16.70;;;5.20;99.90;;;;;;5054933;28;20458;-67
2022/11/26 01:00:21;;;;;;;27.03;16.20;;;5.30;99.90;;;;;;5059876;28;20863;-67
2022/11/26 01:02:48;;;;;;;27.27;17.37;;;5.30;99.90;;;;;;5057710;28;20469;-67
2022/11/26 01:05:17;;;;;;;25.83;16.70;;;5.40;99.90;;;;;;5049999;28;20479;-67
2022/11/26 01:07:45;;;;;;;20.07;16.17;;;5.30;99.90;;;;;;5058487;28;20906;-67
2022/11/26 01:10:19;;;;;;;27.27;16.77;;;5.80;99.90;;;;;;5062648;28;20450;-67
2022/11/26 01:12:46;;;;;;;25.30;16.70;;;5.90;99.90;;;;;;5056139;28;20491;-67
2022/11/26 01:15:14;;;;;;;30.43;16.57;;;5.40;99.90;;;;;;5056844;28;20970;-67
2022/11/26 01:17:42;;;;;;;28.73;17.80;;;5.70;99.90;;;;;;5058256;28;20446;-67
2022/11/26 01:20:22;;;;;;;22.30;15.83;;;5.90;99.90;;;;;;5049230;28;20468;-67
2022/11/26 01:22:51;;;;;;;29.53;17.53;;;5.70;99.90;;;;;;5058573;28;20832;-67
2022/11/26 01:25:18;;;;;;;27.47;17.30;;;5.40;99.90;;;;;;5050087;28;20824;-67
2022/11/26 01:27:45;;;;;;;24.53;16.33;;;5.50;99.90;;;;;;5056473;28;20458;-67
2022/11/26 01:30:18;;;;;;;24.33;17.00;;;5.30;99.90;;;;;;5056474;28;20458;-67
2022/11/26 01:32:44;;;;;;;26.00;16.70;;;5.40;99.90;;;;;;5061035;28;20487;-67
2022/11/26 01:35:12;;;;;;;23.00;15.70;;;5.60;99.90;;;;;;5063568;28;20458;-67
2022/11/26 01:37:40;;;;;;;26.17;16.30;;;5.70;99.90;;;;;;5057275;28;20464;-67
2022/11/26 01:40:28;;;;;;;24.23;17.67;;;5.60;99.90;;;;;;5058608;28;20460;-67
2022/11/26 01:42:59;;;;;;;21.07;16.50;;;5.20;99.90;;;;;;5057319;28;20806;-67
2022/11/26 01:45:26;;;;;;;34.00;18.07;;;5.60;99.90;;;;;;5060029;28;20530;-67
2022/11/26 01:47:53;;;;;;;20.83;16.87;;;5.60;99.90;;;;;;5064758;28;20472;-67
2022/11/26 01:50:47;;;;;;;28.30;18.27;;;5.50;99.90;;;;;;5056463;28;20831;-67
2022/11/26 01:53:18;;;;;;;24.63;18.03;;;5.20;99.90;;;;;;5058283;28;20500;-67
2022/11/26 01:55:50;;;;;;;20.07;17.07;;;5.20;99.90;;;;;;5053412;28;20837;-67
2022/11/26 01:58:20;;;;;;;40.17;18.30;;;5.20;99.90;;;;;;5055895;28;20470;-67
2022/11/26 02:00:48;;;;;;;20.70;16.23;;;5.30;99.90;;;;;;5061446;28;20466;-67
2022/11/26 02:03:15;;;;;;;36.50;18.40;;;5.30;99.90;;;;;;5062296;28;20457;-67
2022/11/26 02:05:49;;;;;;;20.80;17.10;;;5.30;99.90;;;;;;5059158;28;20478;-68
2022/11/26 02:08:16;;;;;;;30.57;17.47;;;5.50;99.90;;;;;;5065018;28;20594;-67
2022/11/26 02:10:43;;;;;;;27.03;16.93;;;5.30;99.90;;;;;;5058562;28;20458;-67
2022/11/26 02:13:12;;;;;;;35.87;17.50;;;5.50;99.90;;;;;;5062652;28;20496;-67
2022/11/26 02:15:48;;;;;;;24.50;18.87;;;5.30;99.90;;;;;;5057923;28;20465;-67
2022/11/26 02:18:16;;;;;;;21.77;17.40;;;5.60;99.90;;;;;;5063415;28;20471;-67
2022/11/26 02:20:49;;;;;;;28.00;16.60;;;5.60;99.90;;;;;;5057577;28;20456;-68
2022/11/26 02:23:36;;;;;;;33.33;18.20;;;5.50;99.90;;;;;;5066101;28;20937;-68
2022/11/26 02:26:35;;;;;;;19.73;15.80;;;5.50;99.90;;;;;;5063952;28;20461;-67
2022/11/26 02:29:14;;;;;;;28.00;16.80;;;5.40;99.90;;;;;;5037596;28;20463;-67
2022/11/26 02:31:48;;;;;;;31.07;17.93;;;5.40;99.90;;;;;;5055992;28;20487;-67
2022/11/26 02:34:22;;;;;;;30.77;17.93;;;5.50;99.90;;;;;;5055773;28;20501;-67
2022/11/26 02:36:53;;;;;;;20.40;18.20;;;5.50;99.90;;;;;;5058693;28;20521;-67
2022/11/26 02:39:21;;;;;;;35.97;17.90;;;5.20;99.90;;;;;;5053764;28;20452;-66
2022/11/26 02:41:50;;;;;;;31.20;17.30;;;5.10;99.90;;;;;;5056303;28;20475;-67
2022/11/26 02:44:21;;;;;;;33.00;18.23;;;4.90;99.90;;;;;;5060500;28;20665;-67
2022/11/26 02:46:54;;;;;;;29.63;17.37;;;4.90;99.90;;;;;;5055801;28;20455;-67
2022/11/26 02:49:22;;;;;;;23.70;18.23;;;4.60;99.90;;;;;;5061950;28;20460;-67
2022/11/26 02:51:52;;;;;;;19.43;17.43;;;4.60;99.90;;;;;;5057235;28;20516;-67
2022/11/26 02:54:22;;;;;;;19.27;17.37;;;4.30;99.90;;;;;;5065610;28;20471;-67
2022/11/26 02:56:50;;;;;;;29.17;18.43;;;4.10;99.90;;;;;;5063186;28;21203;-67
2022/11/26 02:59:17;;;;;;;26.00;19.03;;;3.90;99.90;;;;;;5056117;28;20470;-67
2022/11/26 03:01:51;;;;;;;25.80;19.40;;;4.10;99.90;;;;;;5054421;28;20697;-67
2022/11/26 03:04:23;;;;;;;40.60;20.40;;;4.40;99.90;;;;;;5061314;28;20457;-67
2022/11/26 03:06:51;;;;;;;22.50;18.93;;;4.80;99.90;;;;;;5060883;28;20540;-67
2022/11/26 03:09:19;;;;;;;36.57;20.13;;;4.20;99.90;;;;;;5063028;28;20853;-67
2022/11/26 03:11:45;;;;;;;23.90;20.00;;;4.80;99.90;;;;;;5055575;28;20461;-67
2022/11/26 03:14:12;;;;;;;20.57;18.57;;;4.50;99.90;;;;;;5058309;28;21037;-66
2022/11/26 03:16:39;;;;;;;26.30;18.93;;;4.30;99.90;;;;;;5059118;28;20525;-67
2022/11/26 03:19:06;;;;;;;33.33;18.80;;;4.40;99.90;;;;;;5061659;28;20455;-66
2022/11/26 03:21:35;;;;;;;22.20;20.03;;;4.30;99.90;;;;;;5061853;28;20467;-67
2022/11/26 03:24:02;;;;;;;30.17;20.13;;;4.10;99.90;;;;;;5061086;28;20486;-68
2022/11/26 03:26:29;;;;;;;31.00;19.70;;;3.50;99.90;;;;;;5060189;28;20463;-67
2022/11/26 03:28:56;;;;;;;32.70;19.63;;;3.80;99.90;;;;;;5061624;28;20489;-67
2022/11/26 03:31:23;;;;;;;34.20;19.17;;;3.80;99.90;;;;;;5055926;28;20482;-67
2022/11/26 03:33:50;;;;;;;29.50;19.43;;;3.70;99.90;;;;;;5059202;28;21174;-67
2022/11/26 03:36:16;;;;;;;23.20;20.20;;;3.70;99.90;;;;;;5066208;28;20463;-67
2022/11/26 03:38:44;;;;;;;23.60;20.10;;;3.70;99.90;;;;;;5059070;28;20869;-67
2022/11/26 03:41:26;;;;;;;22.80;19.43;;;3.50;99.90;;;;;;5060205;28;20800;-67
2022/11/26 03:43:53;;;;;;;21.00;19.10;;;3.60;99.90;;;;;;5060152;28;20467;-67
2022/11/26 03:46:20;;;;;;;22.23;19.90;;;3.90;99.90;;;;;;5055845;28;20502;-68
2022/11/26 03:49:02;;;;;;;25.53;20.80;;;3.30;99.90;;;;;;5056960;28;20645;-68
2022/11/26 03:51:29;;;;;;;24.60;20.30;;;3.20;99.90;;;;;;5064658;28;20466;-67
2022/11/26 03:53:57;;;;;;;29.97;21.10;;;3.20;99.90;;;;;;5057580;28;20516;-67
2022/11/26 03:56:24;;;;;;;23.10;20.40;;;3.80;99.90;;;;;;5056780;28;20864;-67
2022/11/26 03:58:51;;;;;;;28.83;21.37;;;4.10;99.90;;;;;;5060959;28;20459;-67
2022/11/26 04:01:18;;;;;;;25.13;19.23;;;3.60;99.90;;;;;;5057148;28;20487;-67
2022/11/26 04:03:45;;;;;;;22.33;20.30;;;3.90;99.90;;;;;;5061838;28;20476;-67
2022/11/26 04:06:13;;;;;;;33.97;22.50;;;3.90;99.90;;;;;;5056536;28;20499;-67
2022/11/26 04:08:39;;;;;;;27.47;19.87;;;3.70;99.90;;;;;;5060528;28;20517;-68
2022/11/26 04:11:08;;;;;;;34.80;21.30;;;4.30;99.90;;;;;;5059397;28;20937;-68
2022/11/26 04:13:35;;;;;;;24.90;21.23;;;3.90;99.90;;;;;;5058610;28;20501;-68
2022/11/26 04:16:02;;;;;;;29.03;22.37;;;3.80;99.90;;;;;;5060819;28;20694;-67
2022/11/26 04:18:29;;;;;;;36.90;22.23;;;3.80;99.90;;;;;;5059798;28;20992;-67
2022/11/26 04:20:56;;;;;;;24.90;21.50;;;4.40;99.90;;;;;;5057497;28;20548;-67
2022/11/26 04:23:23;;;;;;;36.50;20.90;;;3.90;99.90;;;;;;5059342;28;20832;-67
2022/11/26 04:25:50;;;;;;;29.50;22.30;;;4.30;99.90;;;;;;5054542;28;20462;-68
2022/11/26 04:28:18;;;;;;;26.03;21.70;;;3.80;99.90;;;;;;5060614;28;20839;-67
2022/11/26 04:30:45;;;;;;;26.13;20.77;;;4.00;99.90;;;;;;5058637;28;20865;-67
2022/11/26 04:33:11;;;;;;;34.67;21.00;;;4.30;99.90;;;;;;5059463;28;21216;-67
2022/11/26 04:35:38;;;;;;;28.13;20.20;;;4.00;99.90;;;;;;5056178;28;20471;-68
2022/11/26 04:38:05;;;;;;;24.53;22.03;;;4.10;99.90;;;;;;5055426;28;20472;-67
2022/11/26 04:40:32;;;;;;;23.33;20.97;;;4.10;99.90;;;;;;5058566;28;20551;-68
2022/11/26 04:42:59;;;;;;;23.30;20.70;;;4.20;99.90;;;;;;5060202;28;20831;-67
2022/11/26 04:45:28;;;;;;;21.33;19.20;;;4.50;99.90;;;;;;5051817;28;20526;-67
2022/11/26 04:47:56;;;;;;;34.97;21.80;;;3.90;99.90;;;;;;5054177;28;20804;-67
2022/11/26 04:50:23;;;;;;;37.77;20.90;;;4.80;99.90;;;;;;5058602;28;20950;-67
2022/11/26 04:52:50;;;;;;;21.20;19.07;;;4.40;99.90;;;;;;5052695;28;21200;-68
2022/11/26 04:55:18;;;;;;;23.83;18.73;;;4.40;99.90;;;;;;5060183;28;20495;-67
2022/11/26 04:57:47;;;;;;;34.03;19.90;;;4.40;99.90;;;;;;5058460;28;20522;-67
2022/11/26 05:00:15;;;;;;;28.17;20.97;;;4.10;99.90;;;;;;5060023;28;20961;-67
2022/11/26 05:02:44;;;;;;;27.90;19.20;;;4.40;99.90;;;;;;5057977;28;20498;-67
2022/11/26 05:05:11;;;;;;;29.20;20.70;;;4.20;99.90;;;;;;5056708;28;20483;-67
2022/11/26 05:07:38;;;;;;;22.23;19.90;;;4.30;99.90;;;;;;5055127;28;20554;-68
2022/11/26 05:10:08;;;;;;;29.50;20.43;;;4.20;99.90;;;;;;5057704;28;20461;-67
2022/11/26 05:12:36;;;;;;;26.00;21.63;;;3.80;99.90;;;;;;5056051;28;20467;-67
2022/11/26 05:15:04;;;;;;;29.60;20.07;;;4.00;99.90;;;;;;5059569;28;20467;-67
2022/11/26 05:17:31;;;;;;;29.93;21.60;;;4.00;99.90;;;;;;5050470;28;20464;-67
2022/11/26 05:20:00;;;;;;;23.00;20.67;;;3.70;99.90;;;;;;5052920;28;20974;-67
2022/11/26 05:22:27;;;;;;;27.37;19.53;;;4.00;99.90;;;;;;5058453;28;20482;-67
2022/11/26 05:24:54;;;;;;;27.17;21.30;;;3.90;99.90;;;;;;5056406;28;20472;-67
2022/11/26 05:27:21;;;;;;;22.13;20.13;;;3.70;99.90;;;;;;5059022;28;20467;-67
2022/11/26 05:29:49;;;;;;;25.33;21.20;;;3.80;99.90;;;;;;5059050;28;20469;-67
2022/11/26 05:32:17;;;;;;;22.63;20.30;;;3.80;99.90;;;;;;5061155;28;21002;-67
2022/11/26 05:34:43;;;;;;;22.77;20.33;;;3.50;99.90;;;;;;5056551;28;20494;-67
2022/11/26 05:37:11;;;;;;;27.67;20.23;;;3.00;99.90;;;;;;5060168;28;20812;-67
2022/11/26 05:39:39;;;;;;;27.73;21.30;;;3.60;99.90;;;;;;5061290;28;20469;-67
2022/11/26 05:42:06;;;;;;;23.63;21.20;;;3.60;99.90;;;;;;5060335;28;20498;-67
2022/11/26 05:44:33;;;;;;;24.47;22.13;;;3.60;99.90;;;;;;5065133;28;20552;-68
2022/11/26 05:47:00;;;;;;;29.53;21.07;;;3.50;99.90;;;;;;5064446;28;20466;-68
2022/11/26 05:49:27;;;;;;;22.87;20.43;;;3.40;99.90;;;;;;5063619;28;20461;-67
2022/11/26 05:51:53;;;;;;;29.53;24.10;;;3.10;99.90;;;;;;5060917;28;20815;-67
2022/11/26 05:54:21;;;;;;;23.20;20.80;;;3.20;99.90;;;;;;5063069;28;20490;-67
2022/11/26 05:56:49;;;;;;;24.00;21.67;;;3.30;99.90;;;;;;5061112;28;20463;-67
2022/11/26 05:59:16;;;;;;;23.43;21.50;;;3.20;99.90;;;;;;5062518;28;20866;-67
2022/11/26 06:01:43;;;;;;;26.80;21.30;;;2.70;99.90;;;;;;5058465;28;20462;-68
2022/11/26 06:04:10;;;;;;;22.83;20.73;;;2.60;99.90;;;;;;5064935;28;20815;-68
2022/11/26 06:06:37;;;;;;;23.47;21.03;;;3.30;99.90;;;;;;5058322;28;20459;-68
2022/11/26 06:09:05;;;;;;;23.80;20.20;;;2.60;99.90;;;;;;5060574;28;20466;-67
2022/11/26 06:11:33;;;;;;;22.47;20.20;;;3.20;99.90;;;;;;5060922;28;20471;-67
2022/11/26 06:14:01;;;;;;;23.50;20.97;;;2.90;99.90;;;;;;5050131;28;20565;-67
2022/11/26 06:16:28;;;;;;;23.53;20.93;;;2.50;99.90;;;;;;5065390;28;20465;-67
2022/11/26 06:18:56;;;;;;;24.17;20.50;;;2.80;99.90;;;;;;5061446;28;20462;-67
2022/11/26 06:21:23;;;;;;;22.20;20.17;;;3.00;99.90;;;;;;5054238;28;20487;-67
2022/11/26 06:23:49;;;;;;;23.30;21.17;;;2.60;99.90;;;;;;5053965;28;20466;-67
2022/11/26 06:26:17;;;;;;;23.37;20.57;;;2.60;99.90;;;;;;5056229;28;20778;-67
2022/11/26 06:28:45;;;;;;;22.30;20.30;;;2.80;99.90;;;;;;5057371;28;20467;-68
2022/11/26 06:31:13;;;;;;;23.13;20.87;;;2.90;99.90;;;;;;5062506;28;20466;-67
2022/11/26 06:33:39;;;;;;;26.10;23.30;;;2.50;99.90;;;;;;5056955;28;20487;-67
2022/11/26 06:36:07;;;;;;;38.53;23.40;;;2.70;99.90;;;;;;5058158;28;20471;-67
2022/11/26 06:38:34;;;;;;;23.50;21.50;;;2.90;99.90;;;;;;5061871;28;20516;-67
2022/11/26 06:41:02;;;;;;;29.33;22.67;;;3.20;99.90;;;;;;5062459;28;20847;-67
2022/11/26 06:43:29;;;;;;;28.60;20.83;;;2.90;99.90;;;;;;5065735;28;20467;-68
2022/11/26 06:46:02;;;;;;;22.73;19.67;;;3.10;99.90;;;;;;5058135;28;20487;-68
2022/11/26 06:48:29;;;;;;;24.93;19.87;;;2.90;99.90;;;;;;5059379;28;20463;-67
2022/11/26 06:50:56;;;;;;;22.30;20.03;;;3.50;99.90;;;;;;5054514;28;20464;-68
2022/11/26 06:53:23;;;;;;;21.30;18.93;;;3.10;99.90;;;;;;5062243;28;21288;-67
2022/11/26 06:55:50;;;;;;;19.90;18.23;;;3.30;99.90;;;;;;5062437;28;20459;-68
2022/11/26 06:58:17;;;;;;;21.03;18.23;;;3.20;99.90;;;;;;5063993;28;20524;-68
2022/11/26 07:00:44;;;;;;;13.77;13.27;;;3.50;99.90;;;;;;5058277;28;20470;-67
2022/11/26 07:03:12;;;;;;;13.73;13.23;;;3.30;99.90;;;;;;5059284;28;20467;-68
2022/11/26 07:05:40;;;;;;;14.00;13.50;;;3.80;99.90;;;;;;5058068;28;20485;-67
2022/11/26 07:08:06;;;;;;;13.43;12.93;;;3.50;99.90;;;;;;5061801;28;20553;-68
2022/11/26 07:10:33;;;;;;;13.13;12.63;;;3.40;99.90;;;;;;5064544;28;20585;-68
2022/11/26 07:13:01;;;;;;;14.20;13.60;;;3.70;99.90;;;;;;5064842;28;20466;-68
2022/11/26 07:15:27;;;;;;;14.27;13.67;;;3.60;99.90;;;;;;5055567;28;20871;-68
2022/11/26 07:17:54;;;;;;;14.27;13.67;;;3.70;99.90;;;;;;5061510;28;20460;-68
2022/11/26 07:20:23;;;;;;;14.60;14.00;;;3.70;99.90;;;;;;5057550;28;20474;-68
2022/11/26 07:22:50;;;;;;;14.40;13.80;;;3.70;99.90;;;;;;5048584;28;20531;-68
2022/11/26 07:25:17;;;;;;;14.00;13.43;;;3.10;99.90;;;;;;5052793;28;20462;-68
2022/11/26 07:27:45;;;;;;;13.80;13.30;;;3.30;99.90;;;;;;5061442;28;20846;-68
2022/11/26 07:30:13;;;;;;;14.47;13.87;;;3.30;99.90;;;;;;5050664;28;20891;-68
2022/11/26 07:32:40;;;;;;;13.60;13.10;;;3.60;99.90;;;;;;5054667;28;20465;-68
2022/11/26 07:35:07;;;;;;;14.80;14.20;;;3.10;99.90;;;;;;5057303;28;20488;-68
2022/11/26 07:37:36;;;;;;;14.10;13.57;;;3.60;99.90;;;;;;5058245;28;20459;-67
2022/11/26 07:40:03;;;;;;;14.20;13.60;;;3.60;99.90;;;;;;5058908;28;20562;-68
2022/11/26 07:42:31;;;;;;;14.57;13.97;;;3.40;99.90;;;;;;5050970;28;20835;-68
2022/11/26 07:44:59;;;;;;;14.30;13.70;;;3.80;99.90;;;;;;5052628;28;20521;-68
2022/11/26 07:47:26;;;;;;;13.37;12.87;;;3.90;99.90;;;;;;5057440;28;20951;-68
2022/11/26 07:49:53;;;;;;;13.30;12.80;;;4.00;99.90;;;;;;5062483;28;20459;-68
2022/11/26 07:52:20;;;;;;;13.60;13.10;;;4.00;99.90;;;;;;5061047;28;20580;-68
2022/11/26 07:54:48;;;;;;;13.10;12.60;;;4.10;99.90;;;;;;5067822;28;20504;-68
2022/11/26 07:57:15;;;;;;;12.53;12.03;;;4.20;99.90;;;;;;5054310;28;20454;-68
2022/11/26 07:59:42;;;;;;;11.97;11.57;;;4.40;99.90;;;;;;5053296;28;20483;-68
2022/11/26 08:02:14;;;;;;;10.97;10.57;;;4.50;99.90;;;;;;5049414;28;20464;-68
2022/11/26 08:04:41;;;;;;;11.57;11.17;;;4.50;99.90;;;;;;5060798;28;20486;-68
2022/11/26 08:07:08;;;;;;;12.23;11.80;;;4.60;99.90;;;;;;5059418;28;20487;-68
2022/11/26 08:09:36;;;;;;;13.10;12.60;;;4.80;99.90;;;;;;5060632;28;20459;-68
2022/11/26 08:12:05;;;;;;;11.30;10.90;;;4.80;99.90;;;;;;5056201;28;20532;-68
2022/11/26 08:14:33;;;;;;;11.07;10.67;;;4.80;99.90;;;;;;5063337;28;21291;-68
2022/11/26 08:16:59;;;;;;;10.97;10.57;;;4.80;99.90;;;;;;5059113;28;20468;-68
2022/11/26 08:19:26;;;;;;;11.10;10.70;;;5.00;99.90;;;;;;5059629;28;20464;-68
2022/11/26 08:21:53;;;;;;;11.80;11.40;;;5.00;99.90;;;;;;5058896;28;20525;-68
2022/11/26 08:24:22;;;;;;;11.57;11.17;;;5.00;99.90;;;;;;5056257;28;20563;-68
2022/11/26 08:26:50;;;;;;;11.80;11.40;;;5.10;99.90;;;;;;5061448;28;20463;-68
2022/11/26 08:29:18;;;;;;;11.60;11.20;;;5.30;99.90;;;;;;5064350;28;20980;-68
2022/11/26 08:31:45;;;;;;;11.47;11.07;;;5.30;99.90;;;;;;5060514;28;20878;-68
2022/11/26 08:34:14;;;;;;;11.83;11.43;;;5.40;99.90;;;;;;5066439;28;20566;-68
2022/11/26 08:36:41;;;;;;;11.53;11.13;;;5.50;99.90;;;;;;5056325;28;20745;-67
2022/11/26 08:39:08;;;;;;;11.93;11.53;;;5.50;99.90;;;;;;5052438;28;20478;-68
2022/11/26 08:41:36;;;;;;;12.43;11.93;;;5.60;99.90;;;;;;5059529;28;21060;-68
2022/11/26 08:44:02;;;;;;;11.90;11.50;;;5.70;99.90;;;;;;5057664;28;20478;-68
2022/11/26 08:46:31;;;;;;;12.10;11.67;;;5.70;99.90;;;;;;5060237;28;20571;-68
2022/11/26 08:48:58;;;;;;;11.40;11.00;;;5.80;99.90;;;;;;5055653;28;20503;-68
2022/11/26 08:51:25;;;;;;;12.00;11.60;;;5.90;99.90;;;;;;5059368;28;20494;-68
2022/11/26 08:53:52;;;;;;;11.20;10.80;;;5.80;99.90;;;;;;5056910;28;20472;-68
2022/11/26 08:56:19;;;;;;;12.07;11.67;;;5.90;99.90;;;;;;5055825;28;20680;-68
2022/11/26 08:58:47;;;;;;;11.90;11.50;;;5.90;99.90;;;;;;5067786;28;20959;-68
2022/11/26 09:01:15;;;;;;;12.13;11.67;;;6.00;99.90;;;;;;5054415;28;20467;-67
2022/11/26 09:03:44;;;;;;;11.90;11.50;;;6.10;99.90;;;;;;5052450;28;20469;-68
2022/11/26 09:06:11;;;;;;;12.20;11.70;;;6.10;99.90;;;;;;5052574;28;20546;-68
2022/11/26 09:09:11;;;;;;;12.50;12.00;;;6.20;99.90;;;;;;5061274;28;20470;-68
2022/11/26 09:11:32;;;;;;;11.47;11.07;;;6.20;99.90;;;;;;5055041;28;20477;-68
2022/11/26 09:13:59;;;;;;;12.20;11.70;;;6.40;99.90;;;;;;5054612;28;20942;-68
2022/11/26 09:16:26;;;;;;;11.97;11.53;;;6.50;99.90;;;;;;5059088;28;20479;-68
2022/11/26 09:18:55;;;;;;;11.73;11.33;;;6.60;99.90;;;;;;5052426;28;20473;-68
2022/11/26 09:21:22;;;;;;;11.90;11.50;;;6.80;99.90;;;;;;5057443;28;20471;-68
2022/11/26 09:23:48;;;;;;;11.80;11.40;;;7.10;99.90;;;;;;5050125;28;20448;-68
2022/11/26 09:26:15;;;;;;;11.83;11.43;;;7.20;99.90;;;;;;5057051;28;20659;-68
2022/11/26 09:28:42;;;;;;;12.50;12.00;;;7.30;99.90;;;;;;5056000;28;20470;-68
2022/11/26 09:31:09;;;;;;;12.23;11.80;;;7.40;99.90;;;;;;5056161;28;20467;-68
2022/11/26 09:33:36;;;;;;;12.50;12.00;;;7.50;99.90;;;;;;5052950;28;20455;-68
2022/11/26 09:36:06;;;;;;;12.10;11.70;;;7.60;99.90;;;;;;5061191;28;20711;-68
2022/11/26 09:38:33;;;;;;;11.87;11.47;;;7.70;99.90;;;;;;5056346;28;20482;-68
2022/11/26 09:41:08;;;;;;;12.03;11.63;;;7.70;99.90;;;;;;5051181;28;20464;-69
2022/11/26 09:43:40;;;;;;;11.87;11.47;;;7.80;99.90;;;;;;5055742;28;20467;-68
2022/11/26 09:46:10;;;;;;;12.10;11.70;;;7.90;99.90;;;;;;5058016;28;20480;-68
2022/11/26 09:48:39;;;;;;;12.53;12.03;;;8.10;99.90;;;;;;5054953;28;20540;-69
2022/11/26 09:51:12;;;;;;;12.67;12.17;;;8.10;99.90;;;;;;5052594;28;20473;-70
2022/11/26 09:53:45;;;;;;;12.47;11.97;;;8.20;99.90;;;;;;5053046;28;20958;-69
2022/11/26 09:56:19;;;;;;;12.20;11.70;;;8.20;99.90;;;;;;5046868;28;20502;-70
2022/11/26 09:58:55;;;;;;;12.17;11.67;;;8.20;99.90;;;;;;5049729;28;20880;-68
2022/11/26 10:01:23;;;;;;;12.43;11.93;;;8.20;99.90;;;;;;5054558;28;20466;-70
2022/11/26 10:03:51;;;;;;;12.23;11.73;;;8.30;99.90;;;;;;5058120;28;20451;-68
2022/11/26 10:06:29;;;;;;;12.07;11.57;;;8.50;99.90;;;;;;5050001;28;20840;-68
2022/11/26 10:09:19;;;;;;;12.43;11.93;;;8.80;99.90;;;;;;5055917;28;20482;-68
2022/11/26 10:11:55;;;;;;;11.90;11.40;;;8.90;99.90;;;;;;5049899;28;20507;-68
2022/11/26 10:14:38;;;;;;;12.53;12.03;;;8.90;99.90;;;;;;5055831;28;20481;-71
2022/11/26 10:17:19;;;;;;;11.67;11.27;;;9.10;99.90;;;;;;5057320;28;20466;-68
2022/11/26 10:19:59;;;;;;;10.67;10.27;;;8.90;99.90;;;;;;5059123;28;21057;-70
2022/11/26 10:22:31;;;;;;;9.80;9.50;;;9.00;99.90;;;;;;5063464;28;20462;-68
2022/11/26 10:25:01;;;;;;;10.20;9.80;;;9.00;99.90;;;;;;5054918;28;20486;-68
2022/11/26 10:27:32;;;;;;;10.03;9.63;;;9.10;99.90;;;;;;5064147;28;20542;-68
2022/11/26 10:30:01;;;;;;;9.70;9.40;;;9.10;99.90;;;;;;5045248;28;20471;-68
2022/11/26 10:32:36;;;;;;;10.57;10.17;;;9.30;99.90;;;;;;5052250;28;20459;-68
2022/11/26 10:35:03;;;;;;;11.03;10.63;;;9.50;99.90;;;;;;5063576;28;20559;-71
2022/11/26 10:37:31;;;;;;;10.60;10.20;;;9.30;99.90;;;;;;5059070;28;20470;-68
2022/11/26 10:40:14;;;;;;;10.77;10.37;;;9.40;99.90;;;;;;5056766;28;20466;-68
2022/11/26 10:42:43;;;;;;;10.53;10.13;;;9.50;99.90;;;;;;5057866;28;20468;-70
2022/11/26 10:45:18;;;;;;;10.33;9.93;;;9.70;99.90;;;;;;5051464;28;20487;-68
2022/11/26 10:47:45;;;;;;;12.63;11.93;;;9.90;99.90;;;;;;5050905;28;20456;-70
2022/11/26 10:50:22;;;;;;;10.70;10.30;;;9.90;99.90;;;;;;5060828;28;20475;-68
2022/11/26 10:52:51;;;;;;;10.50;10.10;;;9.90;99.90;;;;;;5062576;28;20873;-68
2022/11/26 10:55:23;;;;;;;10.70;10.30;;;9.90;99.90;;;;;;5061533;28;20842;-68
2022/11/26 10:57:55;;;;;;;10.50;10.10;;;10.00;99.90;;;;;;5049589;28;20455;-69
2022/11/26 11:00:33;;;;;;;10.80;10.40;;;10.20;99.90;;;;;;5062111;28;20471;-70
2022/11/26 11:03:01;;;;;;;11.80;11.30;;;10.30;99.90;;;;;;5060096;28;20463;-69
2022/11/26 11:05:29;;;;;;;10.30;9.90;;;10.20;99.90;;;;;;5052810;28;20956;-68
2022/11/26 11:07:58;;;;;;;10.70;10.30;;;10.40;99.90;;;;;;5059834;28;20952;-71
2022/11/26 11:10:26;;;;;;;11.10;10.70;;;10.40;99.90;;;;;;5057738;28;20939;-69
2022/11/26 11:13:03;;;;;;;10.73;10.33;;;10.50;99.90;;;;;;5059751;28;20467;-68
2022/11/26 11:15:32;;;;;;;11.43;11.03;;;10.40;99.90;;;;;;5057660;28;20984;-69
2022/11/26 11:18:02;;;;;;;10.27;9.87;;;10.60;99.90;;;;;;5062134;28;20992;-69
2022/11/26 11:20:32;;;;;;;10.60;10.20;;;10.90;99.90;;;;;;5049656;28;20460;-69
2022/11/26 11:23:18;;;;;;;10.57;10.17;;;10.80;99.90;;;;;;5061073;28;20490;-69
2022/11/26 11:25:56;;;;;;;10.70;10.30;;;10.90;99.90;;;;;;5060755;28;20470;-71
2022/11/26 11:28:25;;;;;;;11.87;11.37;;;10.70;99.90;;;;;;5056871;28;20457;-69
2022/11/26 11:31:00;;;;;;;10.43;10.03;;;10.90;99.90;;;;;;5054475;28;20475;-69
2022/11/26 11:33:28;;;;;;;10.77;10.37;;;11.10;99.90;;;;;;5055467;28;20458;-72
2022/11/26 11:36:01;;;;;;;11.30;10.90;;;11.20;99.90;;;;;;5062219;28;20482;-70
2022/11/26 11:38:31;;;;;;;11.60;11.20;;;11.00;99.90;;;;;;5060023;28;20455;-69
2022/11/26 11:40:59;;;;;;;10.97;10.57;;;11.00;99.90;;;;;;5059692;28;20462;-71
2022/11/26 11:43:26;;;;;;;13.63;13.03;;;11.00;99.90;;;;;;5050195;28;20467;-68
2022/11/26 11:46:11;;;;;;;14.90;14.30;;;11.00;99.90;;;;;;5060800;28;21051;-69
2022/11/26 11:48:53;;;;;;;11.73;11.23;;;11.10;99.90;;;;;;5055604;28;20470;-69
2022/11/26 11:51:27;;;;;;;11.77;11.27;;;11.10;99.90;;;;;;5056161;28;20855;-70
2022/11/26 11:54:07;;;;;;;12.03;11.53;;;11.00;99.90;;;;;;5059117;28;20477;-68
2022/11/26 11:56:40;;;;;;;11.40;11.00;;;11.00;99.90;;;;;;5060582;28;20504;-69
2022/11/26 11:59:36;;;;;;;11.40;11.00;;;11.20;99.90;;;;;;5056492;28;20459;-68
2022/11/26 12:02:36;;;;;;;11.40;11.00;;;11.40;99.90;;;;;;5054723;28;20462;-70
2022/11/26 12:05:20;;;;;;;27.83;16.70;;;11.40;99.90;;;;;;5056169;28;20936;-70
2022/11/26 12:07:55;;;;;;;27.53;17.93;;;11.40;99.90;;;;;;5056094;28;20800;-69
2022/11/26 12:10:30;;;;;;;31.43;18.27;;;11.30;99.90;;;;;;5059569;28;20550;-69
2022/11/26 12:13:00;;;;;;;32.47;19.20;;;11.40;99.90;;;;;;5059852;28;20457;-69
2022/11/26 12:15:29;;;;;;;27.97;17.80;;;11.60;99.90;;;;;;5054362;28;20482;-68
2022/11/26 12:18:03;;;;;;;28.07;16.37;;;11.70;99.90;;;;;;5063907;28;20463;-69
2022/11/26 12:20:34;;;;;;;21.87;16.07;;;11.80;99.90;;;;;;5049259;28;20464;-69
2022/11/26 12:23:24;;;;;;;21.37;16.00;;;12.00;99.90;;;;;;5048138;28;20520;-71
2022/11/26 12:25:58;;;;;;;26.13;17.37;;;11.90;99.90;;;;;;5055968;28;20795;-71
2022/11/26 12:28:28;;;;;;;22.80;17.13;;;11.90;99.90;;;;;;5057867;28;20803;-68
2022/11/26 12:31:01;;;;;;;33.47;17.50;;;11.90;99.90;;;;;;5054037;28;20992;-69
2022/11/26 12:33:34;;;;;;;30.57;18.20;;;11.90;99.90;;;;;;5048584;28;21085;-69
2022/11/26 12:36:07;;;;;;;36.30;17.90;;;11.90;99.90;;;;;;5054655;28;20863;-71
2022/11/26 12:38:39;;;;;;;24.40;17.20;;;11.80;99.90;;;;;;5059786;28;20462;-71
2022/11/26 12:41:11;;;;;;;36.60;18.97;;;11.70;99.90;;;;;;5057842;28;20458;-68
2022/11/26 12:43:52;;;;;;;31.37;18.93;;;11.60;99.90;;;;;;5051116;28;20468;-71
2022/11/26 12:46:24;;;;;;;32.70;17.97;;;11.60;99.90;;;;;;5054856;28;20487;-69
2022/11/26 12:48:55;;;;;;;38.23;15.67;;;11.70;99.90;;;;;;5058775;28;20540;-71